Time;durP1;ratioP1;P1;durP2;ratioP2;P2;SDS_P1;SDS_P2;PMS_P1;PMS_P2;Temp;Humidity;BMP_temperature;BMP_pressure;BME280_temperature;BME280_humidity;BME280_pressure;Samples;Min_cycle;Max_cycle;Signal;HPM_P1;HPM_P2
2023/10/28 00:00:09;;;;;;;9.48;4.88;;;;;;;7.86;100.00;99388.16;1031633;28;20298;-50
2023/10/28 00:00:42;;;;;;;7.70;5.13;;;;;;;7.84;100.00;99392.88;1031776;28;20309;-50
2023/10/28 00:01:15;;;;;;;4.05;3.65;;;;;;;7.92;100.00;99390.66;1031424;28;20305;-49
2023/10/28 00:01:46;;;;;;;6.85;5.13;;;;;;;7.89;100.00;99390.34;1031562;28;20949;-47
2023/10/28 00:02:20;;;;;;;7.22;5.57;;;;;;;7.96;100.00;99388.38;1031534;28;20313;-54
2023/10/28 00:02:51;;;;;;;9.93;4.85;;;;;;;7.96;100.00;99389.19;1032783;28;20309;-48
2023/10/28 00:03:26;;;;;;;9.88;6.18;;;;;;;7.95;100.00;99392.06;1032905;28;20447;-52
2023/10/28 00:03:58;;;;;;;11.88;5.57;;;;;;;7.93;100.00;99394.13;1027446;28;20313;-49
2023/10/28 00:04:31;;;;;;;5.47;4.65;;;;;;;7.95;100.00;99392.88;1027237;28;20338;-50
2023/10/28 00:05:05;;;;;;;10.88;5.00;;;;;;;7.86;100.00;99396.09;1023051;29;20317;-49
2023/10/28 00:05:37;;;;;;;7.25;5.32;;;;;;;7.93;100.00;99391.47;1024479;28;20645;-51
2023/10/28 00:06:09;;;;;;;8.10;5.00;;;;;;;7.93;100.00;99392.28;1027179;28;20404;-49
2023/10/28 00:06:40;;;;;;;9.93;5.35;;;;;;;8.05;100.00;99394.91;1028414;28;20815;-52
2023/10/28 00:07:12;;;;;;;7.72;4.78;;;;;;;8.05;100.00;99385.09;1031895;28;20384;-51
2023/10/28 00:07:44;;;;;;;8.40;4.60;;;;;;;8.10;100.00;99387.06;1031180;28;20424;-50
2023/10/28 00:08:16;;;;;;;7.45;4.78;;;;;;;8.10;100.00;99389.72;1031951;28;20771;-49
2023/10/28 00:08:47;;;;;;;9.07;6.07;;;;;;;8.15;100.00;99395.09;1026870;28;20318;-54
2023/10/28 00:09:20;;;;;;;10.40;7.65;;;;;;;8.11;100.00;99388.66;1027457;28;20381;-54
2023/10/28 00:09:51;;;;;;;12.70;5.57;;;;;;;8.12;100.00;99390.28;1027557;28;20776;-52
2023/10/28 00:10:23;;;;;;;10.30;5.65;;;;;;;8.13;100.00;99380.47;1027284;28;20302;-50
2023/10/28 00:10:55;;;;;;;8.50;5.32;;;;;;;8.13;100.00;99391.88;1030874;28;20400;-52
2023/10/28 00:11:27;;;;;;;9.32;6.28;;;;;;;8.15;100.00;99387.16;1031346;28;20308;-51
2023/10/28 00:12:00;;;;;;;8.75;6.50;;;;;;;8.22;100.00;99385.19;1031596;28;20305;-49
2023/10/28 00:12:31;;;;;;;13.55;5.75;;;;;;;8.15;100.00;99389.00;1031321;28;20309;-52
2023/10/28 00:13:04;;;;;;;11.00;5.75;;;;;;;8.19;100.00;99385.63;1031292;28;20308;-48
2023/10/28 00:13:36;;;;;;;9.50;5.55;;;;;;;8.19;100.00;99390.94;1031527;28;20656;-50
2023/10/28 00:14:07;;;;;;;10.90;5.35;;;;;;;8.23;100.00;99392.09;1031377;28;20309;-49
2023/10/28 00:14:40;;;;;;;17.42;6.28;;;;;;;8.23;100.00;99392.09;1031562;28;20328;-49
2023/10/28 00:15:13;;;;;;;10.40;6.85;;;;;;;8.26;100.00;99391.63;1031566;28;20317;-50
2023/10/28 00:15:45;;;;;;;9.65;5.38;;;;;;;8.21;100.00;99388.03;1031450;28;20312;-49
2023/10/28 00:16:17;;;;;;;9.63;6.60;;;;;;;8.23;100.00;99389.44;1030915;28;20301;-50
2023/10/28 00:16:49;;;;;;;9.82;5.78;;;;;;;8.22;100.00;99390.50;1032767;28;20664;-50
2023/10/28 00:17:20;;;;;;;8.80;5.80;;;;;;;8.20;100.00;99384.59;1031566;28;20784;-49
2023/10/28 00:17:52;;;;;;;10.68;5.60;;;;;;;8.25;100.00;99392.66;1026980;28;20309;-50
2023/10/28 00:18:24;;;;;;;12.90;5.20;;;;;;;8.30;100.00;99391.94;1026524;28;20654;-48
2023/10/28 00:18:55;;;;;;;10.23;5.45;;;;;;;8.32;100.00;99395.97;1027430;28;20692;-49
2023/10/28 00:19:29;;;;;;;12.43;4.90;;;;;;;8.31;100.00;99399.66;1027277;28;20313;-54
2023/10/28 00:20:05;;;;;;;12.40;6.63;;;;;;;8.32;100.00;99390.66;1031228;28;20363;-54
2023/10/28 00:20:37;;;;;;;9.52;4.75;;;;;;;8.28;100.00;99394.03;1031853;28;20301;-50
2023/10/28 00:21:09;;;;;;;5.90;5.05;;;;;;;8.34;100.00;99395.78;1031713;28;20297;-50
2023/10/28 00:21:41;;;;;;;17.30;4.78;;;;;;;8.42;100.00;99397.22;1031755;28;20337;-54
2023/10/28 00:22:13;;;;;;;13.38;6.18;;;;;;;8.47;100.00;99398.13;1031362;28;20297;-53
2023/10/28 00:22:45;;;;;;;11.80;5.22;;;;;;;8.44;100.00;99400.44;1030949;28;20305;-54
2023/10/28 00:23:17;;;;;;;8.95;5.32;;;;;;;8.45;100.00;99404.72;1031915;28;20444;-54
2023/10/28 00:23:48;;;;;;;8.23;5.65;;;;;;;8.46;100.00;99395.72;1032830;28;20297;-50
2023/10/28 00:24:23;;;;;;;10.13;5.45;;;;;;;8.47;100.00;99402.63;1031082;28;20301;-47
2023/10/28 00:24:55;;;;;;;15.27;5.63;;;;;;;8.46;100.00;99391.22;1031601;28;20301;-51
2023/10/28 00:25:37;;;;;;;10.77;5.00;;;;;;;8.49;100.00;99397.88;1031266;28;20293;-54
2023/10/28 00:26:10;;;;;;;8.10;5.30;;;;;;;8.34;100.00;99398.41;1031887;28;20304;-54
2023/10/28 00:26:43;;;;;;;8.43;4.60;;;;;;;8.38;100.00;99406.72;1031641;28;20306;-54
2023/10/28 00:27:15;;;;;;;9.35;5.00;;;;;;;8.45;100.00;99400.22;1031579;28;20644;-51
2023/10/28 00:27:47;;;;;;;12.65;5.45;;;;;;;8.49;100.00;99405.84;1026846;28;20313;-53
2023/10/28 00:28:20;;;;;;;8.93;5.25;;;;;;;8.52;100.00;99395.59;1025811;28;20305;-53
2023/10/28 00:28:52;;;;;;;8.05;4.88;;;;;;;8.51;100.00;99403.78;1026915;28;20350;-54
2023/10/28 00:29:24;;;;;;;10.98;5.13;;;;;;;8.40;100.00;99394.00;1027857;28;20376;-53
2023/10/28 00:29:55;;;;;;;19.23;5.78;;;;;;;8.53;100.00;99399.03;1030690;28;20340;-54
2023/10/28 00:30:27;;;;;;;9.10;5.60;;;;;;;8.54;100.00;99398.81;1030793;28;20316;-53
2023/10/28 00:31:00;;;;;;;14.20;5.45;;;;;;;8.58;100.00;99397.28;1031041;28;20309;-53
2023/10/28 00:31:32;;;;;;;7.45;5.95;;;;;;;8.57;100.00;99389.56;1027308;28;20444;-52
2023/10/28 00:32:05;;;;;;;7.18;5.22;;;;;;;8.54;100.00;99405.97;1027116;28;20305;-54
2023/10/28 00:32:37;;;;;;;13.55;5.70;;;;;;;8.61;100.00;99396.81;1026627;28;20366;-54
2023/10/28 00:33:09;;;;;;;16.77;9.10;;;;;;;8.59;100.00;99392.78;1027977;28;20689;-53
2023/10/28 00:33:42;;;;;;;12.48;5.57;;;;;;;8.62;100.00;99394.94;1031451;28;20321;-54
2023/10/28 00:34:15;;;;;;;13.50;6.72;;;;;;;8.63;100.00;99397.38;1031359;28;20301;-54
2023/10/28 00:34:46;;;;;;;9.63;5.60;;;;;;;8.61;100.00;99393.34;1031291;28;20308;-54
2023/10/28 00:35:18;;;;;;;8.50;4.82;;;;;;;8.61;100.00;99396.81;1026777;28;20607;-52
2023/10/28 00:35:50;;;;;;;8.98;4.85;;;;;;;8.74;100.00;99398.34;1026763;28;20313;-53
2023/10/28 00:36:22;;;;;;;11.02;5.97;;;;;;;8.69;100.00;99400.91;1027227;28;20317;-53
2023/10/28 00:36:53;;;;;;;5.75;4.88;;;;;;;8.66;100.00;99396.06;1027441;28;20626;-54
2023/10/28 00:37:26;;;;;;;6.57;4.93;;;;;;;8.62;100.00;99394.94;1031667;28;20767;-54
2023/10/28 00:37:58;;;;;;;12.88;4.68;;;;;;;8.65;100.00;99394.47;1031490;28;20802;-54
2023/10/28 00:38:30;;;;;;;9.80;5.35;;;;;;;8.66;100.00;99402.19;1026839;28;20420;-54
2023/10/28 00:39:03;;;;;;;14.10;5.85;;;;;;;8.67;100.00;99392.38;1031132;28;20456;-54
2023/10/28 00:39:34;;;;;;;14.00;4.43;;;;;;;8.66;100.00;99393.44;1031265;28;20843;-53
2023/10/28 00:40:07;;;;;;;13.60;5.95;;;;;;;8.66;100.00;99396.06;1031792;28;20308;-53
2023/10/28 00:40:42;;;;;;;11.20;5.18;;;;;;;8.68;100.00;99404.59;1033958;28;20779;-53
2023/10/28 00:41:17;;;;;;;8.07;5.07;;;;;;;8.65;100.00;99389.97;1032432;28;20308;-52
2023/10/28 00:41:48;;;;;;;7.32;5.05;;;;;;;8.69;100.00;99395.59;1031222;28;20308;-52
2023/10/28 00:42:20;;;;;;;5.95;3.95;;;;;;;8.65;100.00;99399.78;1031491;28;20324;-54
2023/10/28 00:42:52;;;;;;;9.25;5.25;;;;;;;8.63;100.00;99397.38;1026935;28;20334;-54
2023/10/28 00:43:24;;;;;;;15.05;5.63;;;;;;;8.70;100.00;99388.44;1026985;28;20382;-54
2023/10/28 00:43:56;;;;;;;8.23;5.75;;;;;;;8.71;100.00;99396.16;1027041;28;20321;-54
2023/10/28 00:44:32;;;;;;;9.43;4.70;;;;;;;8.70;100.00;99391.09;1031378;28;20559;-54
2023/10/28 00:45:11;;;;;;;12.95;5.70;;;;;;;8.70;100.00;99396.41;1031002;28;20306;-53
2023/10/28 00:45:43;;;;;;;10.63;5.03;;;;;;;8.83;100.00;99396.13;1031499;28;20305;-54
2023/10/28 00:46:15;;;;;;;12.63;5.10;;;;;;;8.77;100.00;99400.53;1025211;28;20302;-53
2023/10/28 00:46:47;;;;;;;7.00;4.43;;;;;;;8.80;100.00;99394.75;1028721;28;20298;-53
2023/10/28 00:47:19;;;;;;;9.45;5.60;;;;;;;8.75;100.00;99396.50;1031475;28;20871;-52
2023/10/28 00:47:54;;;;;;;9.35;4.82;;;;;;;8.76;100.00;99396.25;1031721;28;20345;-51
2023/10/28 00:48:28;;;;;;;10.10;5.40;;;;;;;8.73;100.00;99391.41;1033802;28;20826;-50
2023/10/28 00:48:59;;;;;;;9.68;5.15;;;;;;;8.82;100.00;99384.69;1027107;28;20827;-51
2023/10/28 00:49:31;;;;;;;13.73;5.55;;;;;;;8.79;100.00;99390.47;1026851;28;20297;-48
2023/10/28 00:50:09;;;;;;;16.55;4.88;;;;;;;8.84;100.00;99389.75;1027313;28;20306;-51
2023/10/28 00:50:40;;;;;;;11.50;5.50;;;;;;;8.77;100.00;99381.16;1020619;29;20318;-51
2023/10/28 00:51:12;;;;;;;9.43;5.38;;;;;;;8.74;100.00;99402.84;1022906;29;20302;-50
2023/10/28 00:51:45;;;;;;;13.40;5.32;;;;;;;8.76;100.00;99396.25;1023136;28;20401;-51
2023/10/28 00:52:19;;;;;;;15.27;5.57;;;;;;;8.74;100.00;99393.03;1024261;28;20408;-49
2023/10/28 00:52:54;;;;;;;6.43;4.40;;;;;;;8.69;100.00;99395.59;1030963;28;20739;-51
2023/10/28 00:53:26;;;;;;;10.43;5.22;;;;;;;8.66;100.00;99396.88;1030929;28;20309;-50
2023/10/28 00:53:57;;;;;;;12.30;4.60;;;;;;;8.68;100.00;99394.00;1022814;29;20311;-51
2023/10/28 00:54:29;;;;;;;11.07;4.97;;;;;;;8.69;100.00;99395.59;1026274;28;20820;-51
2023/10/28 00:55:01;;;;;;;10.65;4.95;;;;;;;8.65;100.00;99397.94;1027090;28;20376;-54
2023/10/28 00:55:33;;;;;;;9.90;5.15;;;;;;;8.70;100.00;99397.22;1028102;28;20807;-53
2023/10/28 00:56:05;;;;;;;11.35;4.78;;;;;;;8.65;100.00;99405.88;1030732;28;20289;-53
2023/10/28 00:56:37;;;;;;;8.00;5.22;;;;;;;8.62;100.00;99395.75;1022910;28;20306;-54
2023/10/28 00:57:09;;;;;;;12.30;4.75;;;;;;;8.65;100.00;99403.25;1022847;29;20372;-54
2023/10/28 00:57:42;;;;;;;7.40;4.63;;;;;;;8.61;100.00;99399.44;1023381;28;20322;-49
2023/10/28 00:58:16;;;;;;;7.35;4.72;;;;;;;8.75;100.00;99399.94;1023528;28;20454;-49
2023/10/28 00:58:48;;;;;;;7.55;4.68;;;;;;;8.80;100.00;99397.41;1027096;28;20309;-49
2023/10/28 00:59:19;;;;;;;6.32;4.90;;;;;;;8.68;100.00;99399.28;1026693;28;20312;-51
2023/10/28 00:59:53;;;;;;;6.80;4.30;;;;;;;8.63;100.00;99396.56;1027749;28;20895;-50
2023/10/28 01:00:25;;;;;;;13.15;5.03;;;;;;;8.69;100.00;99400.91;1029891;28;20605;-48
2023/10/28 01:00:58;;;;;;;9.57;4.35;;;;;;;8.68;100.00;99405.41;1030790;28;20407;-52
2023/10/28 01:01:29;;;;;;;7.95;4.80;;;;;;;8.64;100.00;99398.16;1031463;28;20293;-50
2023/10/28 01:02:01;;;;;;;8.75;4.90;;;;;;;8.73;100.00;99395.91;1030655;28;20305;-51
2023/10/28 01:02:39;;;;;;;7.45;4.88;;;;;;;8.65;100.00;99402.44;1026787;28;20302;-51
2023/10/28 01:03:10;;;;;;;7.60;4.50;;;;;;;8.55;100.00;99396.94;1030925;28;20316;-54
2023/10/28 01:03:42;;;;;;;10.43;4.72;;;;;;;8.66;100.00;99391.56;1031006;28;20392;-52
2023/10/28 01:04:14;;;;;;;10.98;5.13;;;;;;;8.70;100.00;99394.56;1030904;28;20811;-53
2023/10/28 01:04:46;;;;;;;15.50;5.15;;;;;;;8.63;100.00;99399.22;1027951;28;20306;-51
2023/10/28 01:05:17;;;;;;;13.45;4.25;;;;;;;8.62;100.00;99394.94;1027598;28;20688;-51
2023/10/28 01:05:50;;;;;;;10.80;5.00;;;;;;;8.68;100.00;99399.28;1026815;28;20326;-47
2023/10/28 01:06:22;;;;;;;16.60;4.80;;;;;;;8.64;100.00;99403.47;1022414;29;20295;-47
2023/10/28 01:06:54;;;;;;;7.45;5.45;;;;;;;8.64;100.00;99393.66;1022428;28;20311;-51
2023/10/28 01:07:26;;;;;;;9.10;4.40;;;;;;;8.64;100.00;99398.16;1019544;29;20342;-51
2023/10/28 01:07:58;;;;;;;9.23;4.65;;;;;;;8.60;100.00;99402.34;1019614;29;20301;-51
2023/10/28 01:08:29;;;;;;;11.07;5.15;;;;;;;8.57;100.00;99403.63;1022866;29;20389;-50
2023/10/28 01:09:01;;;;;;;9.43;4.68;;;;;;;8.55;100.00;99400.41;1024596;28;20678;-49
2023/10/28 01:09:44;;;;;;;14.63;5.90;;;;;;;8.65;100.00;99405.09;1027495;28;20302;-51
2023/10/28 01:10:26;;;;;;;9.02;5.35;;;;;;;8.60;100.00;99402.34;1030593;28;21308;-50
2023/10/28 01:11:01;;;;;;;;;;;;;;;8.67;100.00;99397.69;1029088;28;20393;-52
2023/10/28 01:11:37;;;;;;;4.60;3.63;;;;;;;8.64;100.00;99403.47;1028178;28;20011;-53
2023/10/28 01:12:09;;;;;;;7.57;4.30;;;;;;;8.66;100.00;99401.38;1028264;28;20641;-50
2023/10/28 01:12:40;;;;;;;12.40;4.90;;;;;;;8.66;100.00;99402.19;1028642;28;20305;-50
2023/10/28 01:13:12;;;;;;;7.30;5.28;;;;;;;8.65;100.00;99399.78;1031533;28;20311;-53
2023/10/28 01:13:44;;;;;;;21.83;5.25;;;;;;;8.68;100.00;99404.59;1031311;28;20996;-53
2023/10/28 01:14:16;;;;;;;13.20;5.60;;;;;;;8.67;100.00;99397.69;1030963;28;20646;-53
2023/10/28 01:14:47;;;;;;;11.75;5.45;;;;;;;8.54;100.00;99398.00;1031482;28;20302;-53
2023/10/28 01:15:19;;;;;;;8.18;4.70;;;;;;;8.64;100.00;99398.16;1029783;28;20811;-52
2023/10/28 01:15:51;;;;;;;8.07;4.45;;;;;;;8.59;100.00;99395.44;1031673;28;20366;-48
2023/10/28 01:16:23;;;;;;;12.23;4.60;;;;;;;8.58;100.00;99393.81;1029786;28;20290;-51
2023/10/28 01:16:55;;;;;;;9.10;4.65;;;;;;;8.56;100.00;99401.22;1031488;28;20419;-49
2023/10/28 01:17:26;;;;;;;9.13;4.65;;;;;;;8.61;100.00;99403.97;1031540;28;20324;-50
2023/10/28 01:17:58;;;;;;;7.80;5.28;;;;;;;8.54;100.00;99398.00;1028878;28;20918;-51
2023/10/28 01:18:30;;;;;;;8.77;4.03;;;;;;;8.53;100.00;99401.69;1030847;28;20656;-49
2023/10/28 01:19:01;;;;;;;8.95;3.95;;;;;;;8.62;100.00;99400.25;1030318;28;20784;-50
2023/10/28 01:19:34;;;;;;;12.70;4.97;;;;;;;8.62;100.00;99389.63;1029181;28;20304;-50
2023/10/28 01:20:09;;;;;;;12.02;4.57;;;;;;;8.59;100.00;99398.88;1032459;28;20314;-52
2023/10/28 01:20:40;;;;;;;9.25;4.63;;;;;;;8.40;100.00;99397.47;1027125;28;20345;-51
2023/10/28 01:21:12;;;;;;;5.53;3.95;;;;;;;8.46;100.00;99401.00;1027086;28;20302;-51
2023/10/28 01:21:44;;;;;;;10.07;4.75;;;;;;;8.64;100.00;99408.78;1021045;29;20307;-51
2023/10/28 01:22:15;;;;;;;9.93;4.30;;;;;;;8.56;100.00;99396.72;1023376;28;20317;-51
2023/10/28 01:22:47;;;;;;;11.40;5.45;;;;;;;8.55;100.00;99402.25;1026944;28;20298;-50
2023/10/28 01:23:19;;;;;;;8.50;4.40;;;;;;;8.62;100.00;99401.06;1027115;28;20624;-49
2023/10/28 01:23:51;;;;;;;7.20;4.32;;;;;;;8.56;100.00;99407.34;1031422;28;20302;-54
2023/10/28 01:24:22;;;;;;;6.72;4.50;;;;;;;8.59;100.00;99398.88;1031481;28;20311;-48
2023/10/28 01:24:54;;;;;;;9.00;4.78;;;;;;;8.59;100.00;99400.75;1031019;28;20293;-49
2023/10/28 01:25:28;;;;;;;10.65;5.00;;;;;;;8.65;100.00;99399.78;1032078;28;20317;-52
2023/10/28 01:26:00;;;;;;;8.30;6.80;;;;;;;8.58;100.00;99399.94;1031230;28;20719;-50
2023/10/28 01:26:31;;;;;;;8.80;4.03;;;;;;;8.58;100.00;99399.13;1031052;28;20320;-49
2023/10/28 01:27:03;;;;;;;6.30;4.20;;;;;;;8.36;100.00;99389.19;1031223;28;20336;-49
2023/10/28 01:27:38;;;;;;;8.00;4.05;;;;;;;8.48;100.00;99391.78;1032314;28;20395;-50
2023/10/28 01:28:11;;;;;;;5.75;3.65;;;;;;;8.47;100.00;99398.13;1031241;28;20314;-51
2023/10/28 01:28:43;;;;;;;12.48;4.50;;;;;;;8.52;100.00;99400.09;1034935;28;20325;-48
2023/10/28 01:29:14;;;;;;;10.85;5.13;;;;;;;8.55;100.00;99402.25;1034722;28;20350;-51
2023/10/28 01:29:46;;;;;;;11.30;4.50;;;;;;;8.56;100.00;99395.91;1035862;28;20310;-50
2023/10/28 01:30:21;;;;;;;9.27;5.15;;;;;;;8.62;100.00;99400.25;1033943;28;20653;-49
2023/10/28 01:30:53;;;;;;;8.75;4.45;;;;;;;8.58;100.00;99391.97;1026793;28;20298;-53
2023/10/28 01:31:26;;;;;;;6.55;4.78;;;;;;;8.53;100.00;99399.03;1026956;28;20302;-54
2023/10/28 01:31:57;;;;;;;16.40;5.10;;;;;;;8.57;100.00;99400.97;1027106;28;20290;-53
2023/10/28 01:32:29;;;;;;;8.90;4.03;;;;;;;8.59;100.00;99396.25;1026652;28;20780;-54
2023/10/28 01:33:02;;;;;;;11.25;5.07;;;;;;;8.62;100.00;99401.06;1030865;28;20330;-53
2023/10/28 01:33:34;;;;;;;8.18;4.72;;;;;;;8.62;100.00;99401.06;1031034;28;20639;-53
2023/10/28 01:34:06;;;;;;;11.20;4.68;;;;;;;8.66;100.00;99396.06;1031216;28;20305;-52
2023/10/28 01:34:50;;;;;;;6.28;3.90;;;;;;;8.52;100.00;99394.78;1031377;28;20815;-47
2023/10/28 01:35:22;;;;;;;7.25;4.32;;;;;;;8.54;100.00;99398.81;1034660;28;20312;-49
2023/10/28 01:35:54;;;;;;;8.63;4.70;;;;;;;8.55;100.00;99399.59;1034802;28;20309;-48
2023/10/28 01:36:26;;;;;;;17.48;4.97;;;;;;;8.62;100.00;99397.59;1034912;28;20353;-54
2023/10/28 01:36:59;;;;;;;11.95;4.03;;;;;;;8.63;100.00;99401.88;1034625;28;20296;-53
2023/10/28 01:37:30;;;;;;;8.60;4.53;;;;;;;8.56;100.00;99395.91;1026932;28;20310;-53
2023/10/28 01:38:04;;;;;;;9.98;4.32;;;;;;;8.60;100.00;99399.69;1027069;28;20313;-53
2023/10/28 01:38:39;;;;;;;7.78;4.65;;;;;;;8.63;100.00;99392.06;1026869;28;20305;-48
2023/10/28 01:39:12;;;;;;;13.10;5.55;;;;;;;8.63;100.00;99401.88;1027727;28;20312;-51
2023/10/28 01:39:47;;;;;;;12.93;4.38;;;;;;;8.62;100.00;99400.25;1031389;28;20305;-50
2023/10/28 01:40:19;;;;;;;7.53;4.32;;;;;;;8.73;100.00;99402.03;1031058;28;20297;-53
2023/10/28 01:40:51;;;;;;;8.48;4.40;;;;;;;8.65;100.00;99402.44;1030305;28;20317;-53
2023/10/28 01:41:23;;;;;;;11.75;5.35;;;;;;;8.60;100.00;99407.66;1031078;28;20309;-47
2023/10/28 01:41:54;;;;;;;6.05;4.28;;;;;;;8.61;100.00;99396.00;1026874;28;20306;-51
2023/10/28 01:42:26;;;;;;;14.38;4.93;;;;;;;8.68;100.00;99399.28;1026950;28;20788;-49
2023/10/28 01:42:58;;;;;;;7.93;4.25;;;;;;;8.71;100.00;99398.81;1025431;28;20314;-49
2023/10/28 01:43:30;;;;;;;9.20;4.30;;;;;;;8.63;100.00;99400.03;1027374;28;20442;-50
2023/10/28 01:44:01;;;;;;;12.88;4.22;;;;;;;8.69;100.00;99395.59;1031398;28;20648;-53
2023/10/28 01:44:35;;;;;;;8.38;4.75;;;;;;;8.62;100.00;99395.75;1030885;28;20791;-52
2023/10/28 01:45:09;;;;;;;15.23;5.22;;;;;;;8.67;100.00;99397.69;1031285;28;20309;-54
2023/10/28 01:45:40;;;;;;;7.32;4.53;;;;;;;8.67;100.00;99393.19;1026700;28;20333;-53
2023/10/28 01:46:12;;;;;;;8.90;4.70;;;;;;;8.64;100.00;99395.50;1026559;28;20341;-53
2023/10/28 01:46:44;;;;;;;11.25;5.65;;;;;;;8.66;100.00;99401.38;1027017;28;20302;-53
2023/10/28 01:47:16;;;;;;;6.95;4.28;;;;;;;8.66;100.00;99394.22;1027442;28;20302;-53
2023/10/28 01:47:47;;;;;;;10.32;4.25;;;;;;;8.65;100.00;99397.13;1030232;28;20312;-53
2023/10/28 01:48:19;;;;;;;16.38;5.15;;;;;;;8.63;100.00;99399.22;1027538;28;20650;-54
2023/10/28 01:48:51;;;;;;;10.52;5.70;;;;;;;8.63;100.00;99399.22;1031244;28;20336;-51
2023/10/28 01:49:22;;;;;;;7.50;4.90;;;;;;;8.64;100.00;99398.97;1026602;28;20298;-53
2023/10/28 01:49:54;;;;;;;12.45;4.10;;;;;;;8.60;100.00;99399.69;1023585;29;20314;-53
2023/10/28 01:50:26;;;;;;;9.63;4.40;;;;;;;8.67;100.00;99397.69;1022778;29;20299;-49
2023/10/28 01:50:57;;;;;;;11.15;4.60;;;;;;;8.60;100.00;99402.34;1022883;28;20686;-48
2023/10/28 01:51:29;;;;;;;11.73;5.13;;;;;;;8.66;100.00;99401.38;1027256;28;20313;-53
2023/10/28 01:52:00;;;;;;;10.35;5.35;;;;;;;8.65;100.00;99395.28;1034935;28;20312;-54
2023/10/28 01:52:33;;;;;;;10.20;5.07;;;;;;;8.61;100.00;99398.66;1035074;28;20450;-48
2023/10/28 01:53:04;;;;;;;6.00;4.43;;;;;;;8.56;100.00;99401.22;1035869;28;20301;-54
2023/10/28 01:53:36;;;;;;;6.90;4.43;;;;;;;8.54;100.00;99398.00;1034479;28;20329;-54
2023/10/28 01:54:07;;;;;;;6.55;3.72;;;;;;;8.52;100.00;99400.91;1030715;28;20309;-50
2023/10/28 01:54:39;;;;;;;5.10;4.28;;;;;;;8.60;100.00;99397.03;1030579;28;20363;-51
2023/10/28 01:55:11;;;;;;;8.30;4.85;;;;;;;8.53;100.00;99394.53;1030473;28;20369;-49
2023/10/28 01:55:45;;;;;;;7.40;4.30;;;;;;;8.59;100.00;99396.25;1030738;28;20539;-50
2023/10/28 01:56:17;;;;;;;9.25;5.03;;;;;;;8.56;100.00;99395.91;1027238;28;20306;-53
2023/10/28 01:56:48;;;;;;;8.80;4.55;;;;;;;8.61;100.00;99399.44;1026905;28;20309;-48
2023/10/28 01:57:20;;;;;;;11.88;4.70;;;;;;;8.62;100.00;99395.75;1026576;28;20753;-51
2023/10/28 01:57:52;;;;;;;8.82;4.43;;;;;;;8.64;100.00;99393.66;1027147;28;20305;-50
2023/10/28 01:58:24;;;;;;;10.48;4.55;;;;;;;8.63;100.00;99401.88;1030822;28;20779;-50
2023/10/28 01:58:56;;;;;;;9.60;4.78;;;;;;;8.60;100.00;99405.81;1026664;28;20400;-50
2023/10/28 01:59:27;;;;;;;8.80;3.92;;;;;;;8.67;100.00;99403.00;1022770;29;20500;-49
2023/10/28 02:00:00;;;;;;;10.50;4.93;;;;;;;8.63;100.00;99396.56;1023205;28;20295;-49
2023/10/28 02:00:40;;;;;;;;;;;;;;;8.55;100.00;99400.41;1027312;28;20306;-51
2023/10/28 02:01:12;;;;;;;8.95;4.07;;;;;;;8.62;100.00;99394.94;1028588;28;20048;-51
2023/10/28 02:01:43;;;;;;;6.72;4.72;;;;;;;8.67;100.00;99397.69;1031523;28;20392;-50
2023/10/28 02:02:18;;;;;;;13.27;4.88;;;;;;;8.67;100.00;99392.38;1035234;28;20308;-52
2023/10/28 02:02:50;;;;;;;6.68;3.63;;;;;;;8.62;100.00;99400.25;1030991;28;20829;-51
2023/10/28 02:03:22;;;;;;;10.25;4.30;;;;;;;8.60;100.00;99397.03;1026276;28;20321;-51
2023/10/28 02:03:54;;;;;;;6.40;4.30;;;;;;;8.65;100.00;99389.97;1028415;28;20312;-50
2023/10/28 02:04:26;;;;;;;8.43;4.18;;;;;;;8.63;100.00;99396.56;1020742;29;20310;-50
2023/10/28 02:04:58;;;;;;;15.98;4.38;;;;;;;8.68;100.00;99400.09;1022089;28;20338;-49
2023/10/28 02:05:29;;;;;;;9.38;4.80;;;;;;;8.60;100.00;99397.84;1026555;28;20302;-51
2023/10/28 02:06:01;;;;;;;11.55;4.50;;;;;;;8.50;100.00;99404.84;1027066;28;20309;-48
2023/10/28 02:06:33;;;;;;;12.23;4.03;;;;;;;8.48;100.00;99398.94;1026873;28;20302;-49
2023/10/28 02:07:06;;;;;;;13.77;4.43;;;;;;;8.57;100.00;99394.88;1026664;28;20662;-50
2023/10/28 02:07:38;;;;;;;7.65;4.43;;;;;;;8.62;100.00;99400.25;1027141;28;20317;-49
2023/10/28 02:08:10;;;;;;;9.43;3.83;;;;;;;8.59;100.00;99395.44;1027843;28;20310;-49
2023/10/28 02:08:42;;;;;;;11.45;3.83;;;;;;;8.62;100.00;99394.94;1030747;28;20309;-50
2023/10/28 02:09:13;;;;;;;7.15;4.15;;;;;;;8.63;100.00;99396.56;1030692;28;20313;-48
2023/10/28 02:09:45;;;;;;;7.95;3.97;;;;;;;8.68;100.00;99399.28;1030838;28;20406;-53
2023/10/28 02:10:17;;;;;;;9.88;4.75;;;;;;;8.71;100.00;99393.50;1030976;28;20297;-53
2023/10/28 02:10:49;;;;;;;12.50;4.80;;;;;;;8.65;100.00;99408.53;1031331;28;20292;-54
2023/10/28 02:11:23;;;;;;;12.90;4.82;;;;;;;8.67;100.00;99397.69;1030968;28;20301;-53
2023/10/28 02:11:55;;;;;;;9.00;5.75;;;;;;;8.70;100.00;99402.53;1031170;28;20317;-53
2023/10/28 02:12:27;;;;;;;8.30;4.03;;;;;;;8.71;100.00;99400.66;1031212;28;20447;-54
2023/10/28 02:12:59;;;;;;;5.63;4.15;;;;;;;8.78;100.00;99402.16;1031047;28;20329;-53
2023/10/28 02:13:31;;;;;;;9.43;3.95;;;;;;;8.75;100.00;99399.94;1030649;28;20293;-53
2023/10/28 02:14:02;;;;;;;9.93;4.00;;;;;;;8.85;100.00;99391.38;1030735;28;20297;-53
2023/10/28 02:14:35;;;;;;;11.00;5.72;;;;;;;8.82;100.00;99397.97;1030269;28;20337;-53
2023/10/28 02:15:08;;;;;;;12.23;4.60;;;;;;;8.84;100.00;99403.84;1031105;28;20305;-53
2023/10/28 02:15:42;;;;;;;9.02;3.90;;;;;;;8.79;100.00;99401.09;1031186;28;20503;-53
2023/10/28 02:16:14;;;;;;;14.00;4.07;;;;;;;8.88;100.00;99399.66;1030229;28;20365;-53
2023/10/28 02:16:46;;;;;;;7.40;4.20;;;;;;;8.86;100.00;99400.94;1030749;28;20736;-53
2023/10/28 02:17:18;;;;;;;12.30;4.28;;;;;;;8.77;100.00;99400.53;1030849;28;20324;-50
2023/10/28 02:17:51;;;;;;;4.25;3.85;;;;;;;8.82;100.00;99403.28;1030739;28;20328;-51
2023/10/28 02:18:22;;;;;;;9.60;4.80;;;;;;;8.78;100.00;99402.16;1030435;28;20831;-51
2023/10/28 02:18:56;;;;;;;9.60;4.20;;;;;;;8.78;100.00;99404.00;1030777;28;20357;-49
2023/10/28 02:19:29;;;;;;;7.43;3.83;;;;;;;8.78;100.00;99402.16;1030581;28;20652;-49
2023/10/28 02:20:04;;;;;;;8.20;3.60;;;;;;;8.75;100.00;99405.25;1030017;28;20757;-49
2023/10/28 02:20:37;;;;;;;7.97;4.15;;;;;;;8.71;100.00;99398.81;1027272;28;20306;-50
2023/10/28 02:21:09;;;;;;;8.75;3.97;;;;;;;8.65;100.00;99400.59;1030572;28;20301;-50
2023/10/28 02:21:41;;;;;;;6.05;3.60;;;;;;;8.75;100.00;99399.94;1030694;28;20309;-48
2023/10/28 02:22:13;;;;;;;10.07;4.13;;;;;;;8.77;100.00;99405.03;1030741;28;20305;-48
2023/10/28 02:22:46;;;;;;;8.07;3.78;;;;;;;8.72;100.00;99403.09;1030760;28;20815;-48
2023/10/28 02:23:17;;;;;;;4.28;3.40;;;;;;;8.74;100.00;99406.31;1030716;28;20305;-50
2023/10/28 02:23:49;;;;;;;8.88;4.32;;;;;;;8.84;100.00;99403.84;1030872;28;20298;-50
2023/10/28 02:24:21;;;;;;;8.93;4.35;;;;;;;8.82;100.00;99405.13;1030665;28;20803;-50
2023/10/28 02:24:53;;;;;;;6.97;4.65;;;;;;;8.91;100.00;99403.69;1031105;28;20796;-54
2023/10/28 02:25:25;;;;;;;6.63;3.63;;;;;;;8.84;100.00;99401.19;1030606;28;20660;-53
2023/10/28 02:25:56;;;;;;;10.05;3.75;;;;;;;8.83;100.00;99404.88;1030861;28;20312;-54
2023/10/28 02:26:28;;;;;;;11.13;4.97;;;;;;;8.80;100.00;99402.72;1030988;28;20381;-53
2023/10/28 02:27:00;;;;;;;9.02;3.88;;;;;;;8.80;100.00;99408.03;1032535;28;20298;-50
2023/10/28 02:27:32;;;;;;;8.05;4.47;;;;;;;8.80;100.00;99407.22;1032495;28;21002;-51
2023/10/28 02:28:05;;;;;;;11.63;4.85;;;;;;;8.81;100.00;99399.00;1026766;28;20924;-49
2023/10/28 02:28:36;;;;;;;15.07;3.75;;;;;;;8.87;100.00;99405.22;1028008;28;20304;-52
2023/10/28 02:29:08;;;;;;;6.10;3.90;;;;;;;8.86;100.00;99400.94;1031130;28;20310;-53
2023/10/28 02:29:40;;;;;;;12.15;5.55;;;;;;;8.94;100.00;99396.03;1031319;28;20290;-53
2023/10/28 02:30:16;;;;;;;7.07;3.85;;;;;;;8.90;100.00;99402.06;1034718;28;20292;-53
2023/10/28 02:30:47;;;;;;;6.25;4.40;;;;;;;8.85;100.00;99394.81;1033640;28;20297;-54
2023/10/28 02:31:19;;;;;;;12.25;3.30;;;;;;;8.91;100.00;99404.47;1031139;28;20306;-52
2023/10/28 02:31:50;;;;;;;10.70;3.78;;;;;;;8.95;100.00;99400.28;1030823;28;20301;-53
2023/10/28 02:32:23;;;;;;;10.20;3.92;;;;;;;8.93;100.00;99399.72;1031204;28;20305;-49